Time;durP1;ratioP1;P1;durP2;ratioP2;P2;SDS_P1;SDS_P2;PMS_P1;PMS_P2;Temp;Humidity;BMP_temperature;BMP_pressure;BME280_temperature;BME280_humidity;BME280_pressure;Samples;Min_cycle;Max_cycle;Signal;HPM_P1;HPM_P2
2024/03/22 00:02:08;;;;;;;15.90;9.95;;;;;;;12.81;42.50;101821.47;4889098;29;20036;-74
2024/03/22 00:04:36;;;;;;;18.23;11.10;;;;;;;12.80;42.30;101814.22;4913292;29;20519;-75
2024/03/22 00:07:03;;;;;;;16.77;10.70;;;;;;;12.81;42.49;101818.72;4905547;29;20046;-75
2024/03/22 00:09:30;;;;;;;15.80;10.18;;;;;;;12.79;41.91;101821.59;4903006;29;20051;-75
2024/03/22 00:11:57;;;;;;;18.40;10.60;;;;;;;12.80;42.47;101833.44;4893741;29;20067;-75
2024/03/22 00:14:24;;;;;;;19.05;10.70;;;;;;;12.79;41.93;101821.59;4896246;29;20427;-75
2024/03/22 00:16:50;;;;;;;20.27;11.38;;;;;;;12.78;42.57;101817.13;4900409;29;20059;-74
2024/03/22 00:19:17;;;;;;;19.17;11.27;;;;;;;12.79;42.25;101809.72;4902371;29;20040;-75
2024/03/22 00:21:43;;;;;;;17.85;10.43;;;;;;;12.78;42.12;101806.13;4895474;29;20098;-74
2024/03/22 00:24:11;;;;;;;16.23;10.20;;;;;;;12.80;42.21;101805.97;4910096;29;21081;-75
2024/03/22 00:26:37;;;;;;;18.48;11.00;;;;;;;12.78;42.14;101813.50;4907670;29;20050;-74
2024/03/22 00:29:04;;;;;;;16.98;11.02;;;;;;;12.78;42.73;101802.50;4908205;29;20048;-75
2024/03/22 00:31:30;;;;;;;18.40;10.25;;;;;;;12.78;42.34;101797.00;4906799;29;20096;-75
2024/03/22 00:33:58;;;;;;;18.13;10.40;;;;;;;12.78;42.73;101789.66;4909032;29;20056;-74
2024/03/22 00:36:24;;;;;;;17.17;10.63;;;;;;;12.79;42.62;101791.38;4908884;29;20047;-74
2024/03/22 00:38:51;;;;;;;18.60;10.52;;;;;;;12.79;42.08;101785.00;4905623;29;20531;-74
2024/03/22 00:41:18;;;;;;;18.35;10.73;;;;;;;12.80;42.20;101784.00;4905614;29;20036;-75
2024/03/22 00:43:45;;;;;;;16.65;9.88;;;;;;;12.78;42.14;101775.03;4895643;29;20040;-75
2024/03/22 00:46:11;;;;;;;16.98;10.60;;;;;;;12.77;42.60;101781.53;4911188;29;20040;-74
2024/03/22 00:48:38;;;;;;;15.95;10.18;;;;;;;12.75;42.17;101767.91;4912996;29;20040;-75
2024/03/22 00:51:04;;;;;;;16.98;10.35;;;;;;;12.75;42.33;101762.41;4913119;29;20035;-74
2024/03/22 00:53:31;;;;;;;17.35;9.80;;;;;;;12.74;42.63;101754.31;4910206;29;20043;-74
2024/03/22 00:55:59;;;;;;;17.30;10.13;;;;;;;12.73;42.74;101756.16;4898577;29;20035;-75
2024/03/22 00:58:28;;;;;;;17.35;9.48;;;;;;;12.74;43.02;101754.31;4911560;29;20047;-75
2024/03/22 01:00:54;;;;;;;15.27;9.55;;;;;;;12.72;42.94;101748.06;4906755;29;20058;-75
2024/03/22 01:03:21;;;;;;;16.42;9.95;;;;;;;12.72;42.52;101748.06;4901092;29;20044;-74
2024/03/22 01:05:47;;;;;;;16.10;9.57;;;;;;;12.69;42.64;101749.22;4907013;29;20039;-74
2024/03/22 01:08:14;;;;;;;16.73;10.63;;;;;;;12.69;43.01;101746.47;4890408;29;20047;-74
2024/03/22 01:10:41;;;;;;;16.48;9.68;;;;;;;12.71;42.70;101744.44;4905500;29;20072;-74
2024/03/22 01:13:08;;;;;;;16.15;9.48;;;;;;;12.70;42.76;101737.22;4907233;29;20052;-75
2024/03/22 01:15:35;;;;;;;17.40;10.35;;;;;;;12.72;43.24;101742.56;4908335;29;20040;-74
2024/03/22 01:18:02;;;;;;;17.88;10.38;;;;;;;12.70;42.85;101739.97;4910983;29;20458;-74
2024/03/22 01:20:29;;;;;;;18.63;10.98;;;;;;;12.70;43.17;101734.47;4906301;29;20036;-74
2024/03/22 01:22:56;;;;;;;17.40;10.30;;;;;;;12.71;43.01;101735.31;4886334;29;20060;-74
2024/03/22 01:25:22;;;;;;;14.65;9.73;;;;;;;12.70;42.67;101726.22;4911125;29;20043;-74
2024/03/22 01:27:49;;;;;;;16.17;10.02;;;;;;;12.69;43.04;101727.22;4911142;29;20106;-74
2024/03/22 01:30:15;;;;;;;16.92;10.38;;;;;;;12.69;43.14;101727.22;4902095;29;20031;-74
2024/03/22 01:32:43;;;;;;;16.63;9.73;;;;;;;12.70;42.72;101726.22;4893446;29;20050;-74
2024/03/22 01:35:09;;;;;;;15.52;9.50;;;;;;;12.69;42.73;101727.22;4894041;29;20044;-74
2024/03/22 01:37:36;;;;;;;16.45;10.40;;;;;;;12.68;42.98;101716.38;4895723;29;20054;-74
2024/03/22 01:40:02;;;;;;;17.25;9.85;;;;;;;12.68;42.72;101710.88;4903094;29;20032;-74
2024/03/22 01:42:29;;;;;;;17.58;10.35;;;;;;;12.67;43.16;101717.38;4909160;29;20095;-74
2024/03/22 01:44:55;;;;;;;17.10;9.68;;;;;;;12.65;43.27;101703.75;4906342;29;20044;-74
2024/03/22 01:47:22;;;;;;;16.92;9.57;;;;;;;12.66;42.96;101707.38;4911791;29;20042;-74
2024/03/22 01:49:53;;;;;;;15.45;9.85;;;;;;;12.68;43.36;101705.38;4911811;29;20048;-74
2024/03/22 01:52:20;;;;;;;17.10;10.13;;;;;;;12.65;43.11;101701.00;4905450;29;20115;-74
2024/03/22 01:54:46;;;;;;;16.20;10.05;;;;;;;12.65;42.83;101687.28;4909200;29;20043;-74
2024/03/22 01:57:13;;;;;;;17.70;10.13;;;;;;;12.65;43.30;101689.16;4896552;29;20048;-74
2024/03/22 01:59:39;;;;;;;17.55;10.07;;;;;;;12.64;43.07;101690.16;4895218;29;20057;-74
2024/03/22 02:02:07;;;;;;;16.63;9.50;;;;;;;12.64;43.33;101688.28;4905979;29;20032;-74
2024/03/22 02:04:33;;;;;;;14.00;8.90;;;;;;;12.63;43.20;101681.03;4894098;29;20143;-74
2024/03/22 02:07:01;;;;;;;12.75;8.23;;;;;;;12.65;42.96;101678.16;4900806;29;20044;-74
2024/03/22 02:09:27;;;;;;;13.85;8.82;;;;;;;12.62;43.40;101671.06;4909538;29;20445;-74
2024/03/22 02:11:54;;;;;;;14.82;9.02;;;;;;;12.63;43.25;101675.53;4910267;29;20043;-74
2024/03/22 02:14:20;;;;;;;14.98;8.82;;;;;;;12.62;43.06;101665.59;4907745;29;20629;-74
2024/03/22 02:16:47;;;;;;;15.10;9.23;;;;;;;12.61;43.47;101663.78;4887110;29;20040;-74
2024/03/22 02:19:13;;;;;;;14.75;8.63;;;;;;;12.62;43.18;101657.34;4910522;29;20040;-74
2024/03/22 02:21:39;;;;;;;14.30;9.43;;;;;;;12.61;43.53;101650.06;4899703;29;20067;-74
2024/03/22 02:24:07;;;;;;;14.13;8.20;;;;;;;12.62;43.09;101646.34;4913423;29;20040;-74
2024/03/22 02:26:34;;;;;;;14.80;8.48;;;;;;;12.61;43.46;101635.47;4891743;29;20052;-74
2024/03/22 02:29:00;;;;;;;15.15;9.15;;;;;;;12.60;43.26;101637.34;4908772;29;20044;-77
2024/03/22 02:31:27;;;;;;;15.88;9.05;;;;;;;12.59;43.47;101641.06;4896197;29;20040;-74
2024/03/22 02:33:53;;;;;;;14.70;8.60;;;;;;;12.58;42.87;101628.34;4892209;29;20106;-74
2024/03/22 02:36:20;;;;;;;14.23;8.95;;;;;;;12.59;43.40;101623.72;4911761;29;20044;-74
2024/03/22 02:38:45;;;;;;;14.27;8.73;;;;;;;12.58;43.35;101625.59;4912865;29;20051;-74
2024/03/22 02:41:14;;;;;;;13.18;7.93;;;;;;;12.60;43.54;101625.47;4908598;29;20055;-74
2024/03/22 02:43:40;;;;;;;13.80;8.65;;;;;;;12.58;43.13;101625.59;4897642;29;20208;-74
2024/03/22 02:46:07;;;;;;;15.15;8.73;;;;;;;12.59;43.03;101618.22;4910555;29;20044;-74
2024/03/22 02:48:33;;;;;;;14.18;8.95;;;;;;;12.58;43.54;101616.50;4918855;29;20055;-74
2024/03/22 02:50:59;;;;;;;14.63;9.05;;;;;;;12.57;43.62;101615.63;4911644;29;20043;-74
2024/03/22 02:53:26;;;;;;;13.93;8.50;;;;;;;12.57;43.58;101621.09;4912169;29;20055;-74
2024/03/22 02:55:52;;;;;;;13.63;8.60;;;;;;;12.57;43.22;101612.00;4914917;29;20456;-75
2024/03/22 02:58:22;;;;;;;12.45;8.32;;;;;;;12.58;43.22;101614.63;4895275;29;20039;-74
2024/03/22 03:00:48;;;;;;;13.20;8.80;;;;;;;12.55;43.75;101614.84;4911505;29;20520;-74
2024/03/22 03:03:15;;;;;;;12.88;8.25;;;;;;;12.55;43.15;101614.84;4911187;29;20059;-74
2024/03/22 03:05:42;;;;;;;13.15;8.45;;;;;;;12.56;43.47;101605.63;4896903;29;20051;-74
2024/03/22 03:08:09;;;;;;;13.48;8.07;;;;;;;12.54;43.66;101599.41;4896986;29;20044;-74
2024/03/22 03:10:35;;;;;;;12.85;8.13;;;;;;;12.55;43.45;101603.00;4914947;29;20293;-74
2024/03/22 03:13:02;;;;;;;12.25;8.10;;;;;;;12.54;43.25;101593.06;4909514;29;20423;-74
2024/03/22 03:15:30;;;;;;;12.98;8.18;;;;;;;12.55;43.62;101592.91;4910890;29;20316;-74
2024/03/22 03:17:57;;;;;;;12.65;7.97;;;;;;;12.55;43.32;101589.28;4896621;29;20062;-74
2024/03/22 03:20:23;;;;;;;12.50;7.75;;;;;;;12.54;43.79;101584.81;4904209;29;20500;-74
2024/03/22 03:22:50;;;;;;;12.80;7.68;;;;;;;12.52;43.37;101573.94;4898560;29;20052;-74
2024/03/22 03:25:16;;;;;;;14.13;7.85;;;;;;;12.54;43.29;101580.19;4909400;29;20087;-74
2024/03/22 03:27:43;;;;;;;11.70;7.13;;;;;;;12.52;43.26;101568.47;4897113;29;20040;-74
2024/03/22 03:30:09;;;;;;;12.43;7.45;;;;;;;12.50;43.45;101573.19;4928591;29;20031;-74
2024/03/22 03:32:38;;;;;;;13.18;7.70;;;;;;;12.51;43.41;101561.22;4910924;29;20039;-74
2024/03/22 03:35:05;;;;;;;12.43;7.90;;;;;;;12.49;43.28;101566.84;4904316;29;20115;-74
2024/03/22 03:37:32;;;;;;;13.50;8.20;;;;;;;12.50;43.77;101570.47;4895492;29;20504;-74
2024/03/22 03:39:57;;;;;;;10.80;7.80;;;;;;;12.47;43.76;101573.44;4893052;29;20366;-74
2024/03/22 03:42:25;;;;;;;13.13;7.63;;;;;;;12.47;43.34;101565.22;4914101;29;20523;-74
2024/03/22 03:44:51;;;;;;;11.23;7.18;;;;;;;12.47;43.60;101560.59;4895500;29;20472;-74
2024/03/22 03:47:18;;;;;;;13.63;8.00;;;;;;;12.46;43.84;101558.84;4908858;29;20039;-74
2024/03/22 03:49:46;;;;;;;13.48;7.65;;;;;;;12.47;43.96;101556.97;4910869;29;20048;-74
2024/03/22 03:52:13;;;;;;;12.50;7.25;;;;;;;12.44;43.78;101560.88;4897080;29;20040;-74
2024/03/22 03:54:39;;;;;;;12.43;7.30;;;;;;;12.43;43.92;101556.38;4896602;29;20043;-74
2024/03/22 03:57:06;;;;;;;11.52;6.80;;;;;;;12.43;43.64;101556.38;4902560;29;20047;-74
2024/03/22 03:59:32;;;;;;;11.23;7.03;;;;;;;12.41;43.79;101544.66;4894569;29;20356;-74
2024/03/22 04:01:59;;;;;;;10.95;6.70;;;;;;;12.41;43.95;101550.13;4922425;29;20032;-74
2024/03/22 04:04:25;;;;;;;10.20;6.22;;;;;;;12.40;43.91;101539.28;4906768;29;20044;-74
2024/03/22 04:06:53;;;;;;;13.00;7.30;;;;;;;12.41;44.00;101539.16;4900057;29;20083;-74
2024/03/22 04:09:19;;;;;;;12.52;7.53;;;;;;;12.39;43.91;101523.81;4907819;29;20040;-74
2024/03/22 04:11:47;;;;;;;10.93;7.15;;;;;;;12.38;43.92;101527.56;4890842;29;20036;-74
2024/03/22 04:14:13;;;;;;;10.25;6.68;;;;;;;12.37;43.46;101517.59;4897142;29;20044;-74
2024/03/22 04:16:40;;;;;;;11.80;7.25;;;;;;;12.36;43.66;101519.47;4908674;29;20040;-74
2024/03/22 04:19:07;;;;;;;10.40;7.28;;;;;;;12.36;43.92;101521.34;4909425;29;20060;-74
2024/03/22 04:21:34;;;;;;;10.70;6.82;;;;;;;12.35;43.70;101516.84;4910441;29;20043;-74
2024/03/22 04:24:01;;;;;;;10.80;7.22;;;;;;;12.36;43.82;101515.84;4891329;29;20468;-74
2024/03/22 04:26:28;;;;;;;11.45;6.72;;;;;;;12.33;44.08;101510.63;4909008;29;20032;-74
2024/03/22 04:28:54;;;;;;;12.07;6.90;;;;;;;12.31;43.96;101516.22;4893594;29;20048;-74
2024/03/22 04:31:21;;;;;;;12.35;6.85;;;;;;;12.31;43.55;101507.13;4892199;29;20036;-74
2024/03/22 04:33:47;;;;;;;10.05;6.80;;;;;;;12.30;43.73;101514.47;4908957;29;20080;-74
2024/03/22 04:36:14;;;;;;;11.93;7.13;;;;;;;12.28;43.80;101499.16;4896796;29;20044;-75
2024/03/22 04:38:41;;;;;;;10.50;7.10;;;;;;;12.29;44.03;101495.44;4892591;29;20048;-76
2024/03/22 04:41:10;;;;;;;9.20;6.32;;;;;;;12.30;43.63;101497.13;4909102;29;20058;-76
2024/03/22 04:43:35;;;;;;;11.13;6.78;;;;;;;12.27;43.68;101492.81;4906199;29;20519;-76
2024/03/22 04:46:02;;;;;;;9.63;6.43;;;;;;;12.26;43.67;101490.19;4923849;29;20050;-76
2024/03/22 04:48:28;;;;;;;9.80;6.50;;;;;;;12.24;44.25;101482.06;4906915;29;20044;-77
2024/03/22 04:50:55;;;;;;;11.95;7.13;;;;;;;12.25;44.23;101474.72;4906544;29;20052;-77
2024/03/22 04:53:21;;;;;;;12.50;7.47;;;;;;;12.24;43.78;101476.59;4909443;29;20255;-75
2024/03/22 04:55:49;;;;;;;11.35;6.78;;;;;;;12.23;44.08;101469.34;4909560;29;20127;-75
2024/03/22 04:58:17;;;;;;;11.15;6.85;;;;;;;12.24;44.31;101478.47;4889351;29;20063;-76
2024/03/22 05:00:45;;;;;;;10.38;7.40;;;;;;;12.21;43.83;101463.16;4893922;29;20054;-75
2024/03/22 05:03:11;;;;;;;9.15;6.75;;;;;;;12.21;43.81;101465.88;4903794;29;20048;-76
2024/03/22 05:05:39;;;;;;;9.93;6.95;;;;;;;12.22;44.48;101473.09;4906212;29;20083;-75
2024/03/22 05:08:06;;;;;;;10.43;6.53;;;;;;;12.22;43.96;101464.88;4905091;29;20485;-75
2024/03/22 05:10:33;;;;;;;10.88;7.07;;;;;;;12.21;44.27;101462.28;4905251;29;20044;-75
2024/03/22 05:12:59;;;;;;;10.48;6.80;;;;;;;12.21;44.30;101470.50;4906206;29;20051;-76
2024/03/22 05:15:27;;;;;;;12.10;7.22;;;;;;;12.23;44.27;101473.97;4909066;29;20056;-76
2024/03/22 05:17:54;;;;;;;11.80;7.13;;;;;;;12.21;44.51;101462.28;4903383;29;20095;-76
2024/03/22 05:20:21;;;;;;;10.40;7.00;;;;;;;12.23;44.30;101471.22;4911752;29;20132;-75
2024/03/22 05:22:48;;;;;;;10.80;6.88;;;;;;;12.22;44.08;101459.38;4908786;29;20042;-75
2024/03/22 05:25:15;;;;;;;10.85;6.97;;;;;;;12.23;43.99;101463.88;4902066;29;20108;-75
2024/03/22 05:27:42;;;;;;;11.50;7.78;;;;;;;12.23;44.47;101461.13;4895024;29;20039;-75
2024/03/22 05:30:10;;;;;;;11.65;8.15;;;;;;;12.24;44.12;101453.75;4904021;29;20508;-75
2024/03/22 05:32:38;;;;;;;10.25;7.22;;;;;;;12.25;44.21;101453.63;4905393;29;20029;-75
2024/03/22 05:35:05;;;;;;;10.40;7.28;;;;;;;12.25;44.26;101461.00;4906545;29;20055;-75
2024/03/22 05:37:31;;;;;;;11.63;7.38;;;;;;;12.24;44.11;101464.75;4886867;29;20051;-76
2024/03/22 05:39:58;;;;;;;10.75;6.97;;;;;;;12.25;44.53;101461.00;4906012;29;20504;-75
2024/03/22 05:42:26;;;;;;;10.23;7.25;;;;;;;12.26;44.18;101460.88;4907371;29;20040;-77
2024/03/22 05:44:52;;;;;;;10.88;6.90;;;;;;;12.26;44.58;101460.88;4912812;29;20419;-76
2024/03/22 05:47:20;;;;;;;10.02;6.82;;;;;;;12.27;44.10;101459.00;4893145;29;20058;-76
2024/03/22 05:49:48;;;;;;;8.77;6.22;;;;;;;12.29;44.64;101462.50;4891019;29;20047;-76
2024/03/22 05:52:15;;;;;;;12.65;7.15;;;;;;;12.28;44.39;101458.00;4910909;29;20056;-76
2024/03/22 05:54:41;;;;;;;10.52;7.13;;;;;;;12.28;44.65;101449.78;4888207;29;20051;-75
2024/03/22 05:57:08;;;;;;;11.70;7.45;;;;;;;12.29;44.57;101452.38;4913400;29;20424;-76
2024/03/22 05:59:34;;;;;;;10.05;6.78;;;;;;;12.29;44.12;101448.78;4895114;29;20048;-76
2024/03/22 06:02:01;;;;;;;9.93;6.85;;;;;;;12.31;44.41;101457.72;4924985;29;20063;-76
2024/03/22 06:04:27;;;;;;;9.98;6.60;;;;;;;12.31;44.35;101450.34;4913129;29;20051;-76
2024/03/22 06:06:55;;;;;;;10.95;6.82;;;;;;;12.33;44.79;101458.47;4899885;29;20047;-76
2024/03/22 06:09:24;;;;;;;12.05;7.90;;;;;;;12.34;44.69;101457.47;4908779;29;20071;-76
2024/03/22 06:11:51;;;;;;;9.98;6.93;;;;;;;12.34;44.30;101460.22;4897051;29;20431;-75
2024/03/22 06:14:17;;;;;;;9.05;6.72;;;;;;;12.35;44.67;101453.72;4909593;29;20298;-74
2024/03/22 06:16:44;;;;;;;9.48;7.30;;;;;;;12.36;44.72;101452.72;4897466;29;20047;-75
2024/03/22 06:19:10;;;;;;;9.73;6.97;;;;;;;12.37;44.57;101455.34;4911747;29;20044;-75
2024/03/22 06:21:37;;;;;;;11.45;7.00;;;;;;;12.38;44.47;101450.69;4913045;29;20341;-75
2024/03/22 06:24:05;;;;;;;10.23;6.93;;;;;;;12.40;44.90;101437.72;4912079;29;20046;-75
2024/03/22 06:26:32;;;;;;;12.75;7.05;;;;;;;12.39;44.49;101433.22;4911869;29;20064;-75
2024/03/22 06:28:57;;;;;;;13.07;7.63;;;;;;;12.41;44.99;101433.97;4912198;29;20067;-73
2024/03/22 06:31:24;;;;;;;10.48;7.38;;;;;;;12.42;44.92;101435.72;4899870;29;20516;-74
2024/03/22 06:33:50;;;;;;;11.20;7.03;;;;;;;12.42;44.67;101420.13;4890386;29;20040;-74
2024/03/22 06:36:18;;;;;;;10.77;7.20;;;;;;;12.44;44.94;101420.00;4912007;29;20062;-74
2024/03/22 06:38:44;;;;;;;11.45;7.57;;;;;;;12.45;44.77;101421.75;4894498;29;20051;-74
2024/03/22 06:41:12;;;;;;;11.90;8.23;;;;;;;12.47;45.17;101420.59;4893749;29;20126;-74
2024/03/22 06:43:38;;;;;;;11.32;8.00;;;;;;;12.47;44.79;101420.59;4914186;29;20046;-74
2024/03/22 06:46:05;;;;;;;13.88;8.15;;;;;;;12.49;44.98;101414.97;4915547;29;20044;-74
2024/03/22 06:48:31;;;;;;;11.25;7.80;;;;;;;12.53;45.11;101415.59;4914474;29;20047;-74
2024/03/22 06:50:58;;;;;;;11.70;7.82;;;;;;;12.53;44.83;101421.94;4910927;29;20055;-74
2024/03/22 06:53:23;;;;;;;13.05;9.00;;;;;;;12.57;44.88;101417.03;4914731;29;20039;-74
2024/03/22 06:55:50;;;;;;;11.13;8.00;;;;;;;12.60;44.94;101414.03;4898304;29;20587;-73
2024/03/22 06:58:18;;;;;;;12.02;8.45;;;;;;;12.64;45.14;101419.16;4897867;29;20055;-74
2024/03/22 07:00:44;;;;;;;11.50;8.68;;;;;;;12.66;45.20;101410.78;4913050;29;20094;-74
2024/03/22 07:03:10;;;;;;;14.07;8.63;;;;;;;12.70;44.87;101417.75;4905302;29;20040;-74
2024/03/22 07:05:37;;;;;;;13.77;8.32;;;;;;;12.73;45.30;101411.97;4899212;29;20048;-74
2024/03/22 07:08:04;;;;;;;12.88;8.98;;;;;;;12.76;45.42;101404.34;4903059;29;20515;-74
2024/03/22 07:10:32;;;;;;;15.15;9.15;;;;;;;12.79;45.14;101400.44;4904875;29;20031;-73
2024/03/22 07:12:58;;;;;;;15.27;9.52;;;;;;;12.81;44.96;101407.53;4888964;29;20052;-74
2024/03/22 07:15:27;;;;;;;15.57;10.38;;;;;;;12.86;44.69;101407.16;4914244;29;20066;-74
2024/03/22 07:17:53;;;;;;;13.48;9.48;;;;;;;12.86;44.90;101407.16;4910015;29;20051;-74
2024/03/22 07:20:20;;;;;;;13.45;9.60;;;;;;;12.88;45.23;101406.00;4901689;29;20451;-74
2024/03/22 07:22:46;;;;;;;14.50;10.18;;;;;;;12.90;45.34;101408.63;4903596;29;20052;-74
2024/03/22 07:25:13;;;;;;;16.58;10.35;;;;;;;12.92;44.92;101406.59;4907558;29;20062;-75
2024/03/22 07:27:39;;;;;;;15.63;10.50;;;;;;;12.94;45.18;101400.97;4898403;29;20052;-75
2024/03/22 07:30:07;;;;;;;13.23;9.70;;;;;;;12.97;44.90;101397.94;4905247;29;20567;-74
2024/03/22 07:32:34;;;;;;;15.00;10.18;;;;;;;13.00;44.92;101394.94;4905186;29;20582;-75
2024/03/22 07:35:01;;;;;;;15.88;10.50;;;;;;;13.01;45.00;101397.53;4910207;29;20527;-75
2024/03/22 07:37:27;;;;;;;15.23;10.98;;;;;;;13.03;45.19;101408.41;4891650;29;20571;-75
2024/03/22 07:39:54;;;;;;;16.40;10.48;;;;;;;13.06;45.72;101402.63;4897481;29;20048;-75
2024/03/22 07:42:21;;;;;;;15.35;10.75;;;;;;;13.10;46.20;101395.84;4895301;29;20051;-74
2024/03/22 07:44:48;;;;;;;15.88;10.95;;;;;;;13.18;46.22;101398.78;4896185;29;20054;-74
2024/03/22 07:47:14;;;;;;;16.17;10.82;;;;;;;13.25;46.36;101400.84;4913588;29;20547;-74
2024/03/22 07:49:42;;;;;;;14.10;10.13;;;;;;;13.35;46.35;101398.13;4908124;29;20121;-76
2024/03/22 07:52:08;;;;;;;16.67;11.23;;;;;;;13.44;46.23;101396.41;4904124;29;20040;-74
2024/03/22 07:54:35;;;;;;;17.15;10.90;;;;;;;13.52;46.29;101393.84;4909015;29;20040;-75
2024/03/22 07:57:01;;;;;;;15.63;10.25;;;;;;;13.61;45.88;101387.53;4942769;23;20039;-74
2024/03/22 07:59:28;;;;;;;17.38;10.57;;;;;;;13.69;45.86;101386.81;4951095;28;20494;-73
2024/03/22 08:01:53;;;;;;;15.73;10.35;;;;;;;13.75;45.18;101394.50;4953739;28;20453;-73
2024/03/22 08:04:20;;;;;;;16.13;11.27;;;;;;;13.83;45.49;101394.66;4947266;28;20042;-73
2024/03/22 08:06:48;;;;;;;18.40;11.27;;;;;;;13.89;45.24;101392.19;4947906;28;20036;-73
2024/03/22 08:09:15;;;;;;;15.52;10.93;;;;;;;13.93;44.64;101379.03;4930003;28;20042;-72
2024/03/22 08:11:42;;;;;;;16.73;11.27;;;;;;;13.96;45.14;101379.59;4952237;28;20628;-73
2024/03/22 08:14:09;;;;;;;16.60;11.55;;;;;;;13.99;44.45;101373.81;4952068;28;20051;-72
2024/03/22 08:16:34;;;;;;;14.80;10.65;;;;;;;14.04;44.34;101378.88;4955852;28;20039;-73
2024/03/22 08:19:01;;;;;;;14.63;11.15;;;;;;;14.05;44.10;101377.84;4929907;28;20518;-73
2024/03/22 08:21:27;;;;;;;16.55;10.73;;;;;;;14.08;44.32;101385.84;4953359;28;20062;-73
2024/03/22 08:23:55;;;;;;;15.35;10.15;;;;;;;14.11;44.56;101380.03;4950701;28;20047;-73
2024/03/22 08:26:21;;;;;;;15.52;10.85;;;;;;;14.11;44.17;101381.91;4948094;28;20528;-73
2024/03/22 08:28:49;;;;;;;16.00;11.20;;;;;;;14.11;43.90;101382.78;4956287;28;20046;-72
2024/03/22 08:31:14;;;;;;;15.93;10.27;;;;;;;14.13;43.79;101382.63;4951272;28;20054;-73
2024/03/22 08:33:41;;;;;;;15.20;10.52;;;;;;;14.12;44.27;101379.00;4935598;28;20047;-73
2024/03/22 08:36:07;;;;;;;15.77;10.57;;;;;;;14.12;43.81;101373.50;4952540;28;20505;-73
2024/03/22 08:38:34;;;;;;;14.43;9.93;;;;;;;14.13;43.90;101374.38;4953946;28;20034;-73
2024/03/22 08:41:03;;;;;;;15.05;10.20;;;;;;;14.15;44.23;101369.59;4959312;28;20533;-73
2024/03/22 08:43:30;;;;;;;15.10;10.20;;;;;;;14.13;44.07;101372.50;4950283;28;20042;-73
2024/03/22 08:45:56;;;;;;;14.38;9.38;;;;;;;14.12;44.00;101368.00;4954550;28;20058;-73
2024/03/22 08:48:23;;;;;;;14.02;10.13;;;;;;;14.13;43.65;101375.25;4953064;28;20054;-73
2024/03/22 08:50:49;;;;;;;13.50;9.27;;;;;;;14.14;44.21;101373.38;4950943;28;20047;-72
2024/03/22 08:53:15;;;;;;;14.38;9.65;;;;;;;14.14;43.84;101376.13;4952698;28;20046;-73
2024/03/22 08:55:45;;;;;;;14.85;10.43;;;;;;;14.18;43.97;101367.44;4950694;28;20039;-73
2024/03/22 08:58:14;;;;;;;14.02;9.35;;;;;;;14.19;43.80;101368.31;4940581;28;20054;-72
2024/03/22 09:00:41;;;;;;;13.68;9.65;;;;;;;14.19;43.75;101368.31;4948889;28;20046;-73
2024/03/22 09:03:08;;;;;;;15.55;10.07;;;;;;;14.21;43.84;101367.13;4946353;28;20473;-74
2024/03/22 09:05:34;;;;;;;12.98;9.20;;;;;;;14.23;43.55;101356.84;4949818;28;20399;-72
2024/03/22 09:08:03;;;;;;;13.38;9.23;;;;;;;14.25;43.47;101354.84;4932223;28;20054;-73
2024/03/22 09:10:29;;;;;;;12.25;8.55;;;;;;;14.27;43.44;101352.78;4933412;28;20474;-73
2024/03/22 09:12:56;;;;;;;14.80;8.80;;;;;;;14.30;43.85;101351.63;4950495;28;20038;-73
2024/03/22 09:15:24;;;;;;;12.57;8.65;;;;;;;14.33;43.60;101349.47;4949079;28;20236;-73
2024/03/22 09:17:53;;;;;;;12.70;8.48;;;;;;;14.36;43.54;101351.03;4949211;28;20047;-72
2024/03/22 09:20:18;;;;;;;12.10;8.75;;;;;;;14.36;43.55;101346.41;4948134;28;20489;-74
2024/03/22 09:22:46;;;;;;;14.00;8.50;;;;;;;14.38;43.22;101340.75;4949205;28;20049;-75
2024/03/22 09:25:12;;;;;;;13.13;8.48;;;;;;;14.41;43.44;101342.34;4926291;28;20498;-75
2024/03/22 09:27:38;;;;;;;11.50;8.32;;;;;;;14.42;43.15;101341.34;4945678;28;20043;-75
2024/03/22 09:30:07;;;;;;;13.20;8.57;;;;;;;14.45;43.39;101341.00;4934166;28;20062;-75
2024/03/22 09:32:34;;;;;;;12.32;8.18;;;;;;;14.48;43.56;101343.53;4955238;28;20086;-75
2024/03/22 09:35:01;;;;;;;12.43;8.63;;;;;;;14.48;43.32;101341.63;4953808;28;20049;-74
2024/03/22 09:37:27;;;;;;;10.77;7.22;;;;;;;14.53;43.94;101324.66;4954932;28;20399;-70
2024/03/22 09:39:54;;;;;;;10.93;8.25;;;;;;;14.58;43.66;101333.34;4942929;28;20045;-67
2024/03/22 09:42:22;;;;;;;9.82;7.25;;;;;;;14.65;43.69;101328.97;4959323;28;20050;-68
2024/03/22 09:44:51;;;;;;;11.40;7.22;;;;;;;14.69;43.67;101335.91;4958742;28;20039;-63
2024/03/22 09:47:20;;;;;;;9.30;6.38;;;;;;;14.75;43.69;101318.81;4958187;28;20069;-64
2024/03/22 09:49:49;;;;;;;10.15;7.22;;;;;;;14.83;42.99;101318.06;4940864;28;20043;-63
2024/03/22 09:52:19;;;;;;;12.40;7.60;;;;;;;14.89;42.84;101317.44;4958880;28;20279;-64
2024/03/22 09:54:46;;;;;;;10.75;6.97;;;;;;;14.93;42.83;101325.25;4958927;28;20552;-64
2024/03/22 09:57:15;;;;;;;10.43;6.90;;;;;;;14.99;42.26;101319.13;4958149;28;20047;-64
2024/03/22 09:59:42;;;;;;;11.70;7.20;;;;;;;15.02;42.67;101323.47;4958492;28;20042;-64
2024/03/22 10:02:10;;;;;;;12.35;7.13;;;;;;;15.06;42.68;101317.50;4958799;28;20043;-64
2024/03/22 10:04:37;;;;;;;9.20;6.40;;;;;;;15.10;42.72;101318.06;4956986;28;20653;-63
2024/03/22 10:07:05;;;;;;;10.18;6.80;;;;;;;15.15;42.24;101312.97;4942150;28;20038;-63
2024/03/22 10:09:33;;;;;;;10.60;6.72;;;;;;;15.16;41.76;101306.44;4958224;28;20086;-74
2024/03/22 10:11:59;;;;;;;10.52;7.45;;;;;;;15.19;41.88;101302.47;4957268;28;20405;-74
2024/03/22 10:14:26;;;;;;;11.23;7.40;;;;;;;15.21;41.39;101304.06;4934377;28;20070;-74
2024/03/22 10:16:53;;;;;;;12.13;7.75;;;;;;;15.22;41.19;101302.19;4955219;28;20066;-74
2024/03/22 10:19:20;;;;;;;11.00;7.28;;;;;;;15.22;41.55;101302.19;4937406;28;20047;-74
2024/03/22 10:21:48;;;;;;;12.45;8.38;;;;;;;15.23;40.80;101292.91;4955720;28;20043;-74
2024/03/22 10:24:16;;;;;;;11.65;7.68;;;;;;;15.22;40.88;101296.66;4954613;28;20477;-74
2024/03/22 10:26:42;;;;;;;11.65;7.50;;;;;;;15.19;40.77;101289.56;4942755;28;20043;-75
2024/03/22 10:29:09;;;;;;;10.50;6.63;;;;;;;15.17;40.85;101291.63;4947005;28;20129;-74
2024/03/22 10:31:35;;;;;;;10.93;7.15;;;;;;;15.16;40.52;101283.50;4957292;28;20417;-74
2024/03/22 10:34:03;;;;;;;11.27;7.43;;;;;;;15.15;40.62;101279.88;4955893;28;20081;-74
2024/03/22 10:36:30;;;;;;;10.75;7.90;;;;;;;15.12;40.79;101280.19;4955674;28;20113;-74
2024/03/22 10:38:59;;;;;;;13.95;8.38;;;;;;;15.10;40.87;101272.06;4951131;28;20026;-75
2024/03/22 10:41:26;;;;;;;13.55;8.07;;;;;;;15.09;40.52;101263.97;4955140;28;20046;-75
2024/03/22 10:43:54;;;;;;;12.73;7.72;;;;;;;15.06;41.16;101267.88;4944727;28;20415;-74
2024/03/22 10:46:20;;;;;;;10.68;7.75;;;;;;;15.06;40.86;101264.25;4950403;28;20050;-73
2024/03/22 10:48:47;;;;;;;10.60;7.78;;;;;;;15.05;41.54;101265.28;4950808;28;20522;-74
2024/03/22 10:51:15;;;;;;;11.10;8.20;;;;;;;15.06;40.80;101261.50;4953155;28;20038;-74
2024/03/22 10:53:44;;;;;;;10.63;7.50;;;;;;;15.05;41.49;101259.75;4949913;28;20351;-74
2024/03/22 10:56:11;;;;;;;13.35;8.60;;;;;;;15.06;41.18;101250.47;4950244;28;20113;-74
2024/03/22 10:58:42;;;;;;;11.02;8.05;;;;;;;15.07;39.96;101242.06;4952969;28;20113;-73
2024/03/22 11:01:21;;;;;;;11.63;8.05;;;;;;;15.07;40.14;101238.44;4954239;28;20549;-73
2024/03/22 11:03:48;;;;;;;11.25;7.78;;;;;;;15.03;40.72;101237.88;4949586;28;20678;-74
2024/03/22 11:06:19;;;;;;;10.88;7.47;;;;;;;15.05;40.03;101235.81;4949722;28;20405;-74
2024/03/22 11:08:50;;;;;;;11.13;7.85;;;;;;;15.06;40.23;101236.69;4953369;28;20043;-74
2024/03/22 11:11:18;;;;;;;12.55;8.52;;;;;;;15.04;40.36;101236.84;4951400;28;20049;-74
2024/03/22 11:13:48;;;;;;;12.70;8.57;;;;;;;15.04;40.57;101233.22;4951253;28;20038;-74
2024/03/22 11:16:14;;;;;;;11.98;8.00;;;;;;;15.01;40.48;101228.88;4939097;28;20043;-74